sensor_id;sensor_type;location;lat;lon;timestamp;pressure;altitude;pressure_sealevel;temperature;humidity
86138;BME280;76796;49.056;15.810;2024-03-08T00:02:23;97024.88;;;3.82;nan
86138;BME280;76796;49.056;15.810;2024-03-08T00:04:49;97020.41;;;3.84;nan
86138;BME280;76796;49.056;15.810;2024-03-08T00:07:15;97022.03;;;3.86;nan
86138;BME280;76796;49.056;15.810;2024-03-08T00:09:41;97021.16;;;3.86;nan
86138;BME280;76796;49.056;15.810;2024-03-08T00:12:08;97012.81;;;3.79;nan
86138;BME280;76796;49.056;15.810;2024-03-08T00:14:41;97009.25;;;3.80;nan
86138;BME280;76796;49.056;15.810;2024-03-08T00:17:13;97012.81;;;3.79;nan
86138;BME280;76796;49.056;15.810;2024-03-08T00:19:38;97016.25;;;3.80;nan
86138;BME280;76796;49.056;15.810;2024-03-08T00:22:05;97010.19;;;3.79;nan
86138;BME280;76796;49.056;15.810;2024-03-08T00:24:32;97011.03;;;3.80;nan
86138;BME280;76796;49.056;15.810;2024-03-08T00:26:58;97019.22;;;3.74;nan
86138;BME280;76796;49.056;15.810;2024-03-08T00:29:24;97019.13;;;3.75;nan
86138;BME280;76796;49.056;15.810;2024-03-08T00:31:56;97010.59;;;3.72;nan
86138;BME280;76796;49.056;15.810;2024-03-08T00:34:21;97005.47;;;3.70;nan
86138;BME280;76796;49.056;15.810;2024-03-08T00:36:47;97010.69;;;3.70;nan
86138;BME280;76796;49.056;15.810;2024-03-08T00:39:14;97015.09;;;3.70;nan
86138;BME280;76796;49.056;15.810;2024-03-08T00:41:39;97008.22;;;3.67;nan
86138;BME280;76796;49.056;15.810;2024-03-08T00:44:05;97008.28;;;3.66;nan
86138;BME280;76796;49.056;15.810;2024-03-08T00:46:31;97002.22;;;3.65;nan
86138;BME280;76796;49.056;15.810;2024-03-08T00:49:03;96995.38;;;3.62;nan
86138;BME280;76796;49.056;15.810;2024-03-08T00:51:29;96995.38;;;3.62;nan
86138;BME280;76796;49.056;15.810;2024-03-08T00:53:55;96990.41;;;3.58;nan
86138;BME280;76796;49.056;15.810;2024-03-08T00:56:20;96991.25;;;3.58;nan
86138;BME280;76796;49.056;15.810;2024-03-08T00:58:46;96984.31;;;3.57;nan
86138;BME280;76796;49.056;15.810;2024-03-08T01:01:13;96986.84;;;3.59;nan
86138;BME280;76796;49.056;15.810;2024-03-08T01:03:43;96995.47;;;3.61;nan
86138;BME280;76796;49.056;15.810;2024-03-08T01:06:15;96989.47;;;3.59;nan
86138;BME280;76796;49.056;15.810;2024-03-08T01:08:40;96986.00;;;3.58;nan
86138;BME280;76796;49.056;15.810;2024-03-08T01:11:08;96980.78;;;3.58;nan
86138;BME280;76796;49.056;15.810;2024-03-08T01:13:40;96978.06;;;3.60;nan
86138;BME280;76796;49.056;15.810;2024-03-08T01:16:06;96981.03;;;3.54;nan
86138;BME280;76796;49.056;15.810;2024-03-08T01:18:32;96980.47;;;3.47;nan
86138;BME280;76796;49.056;15.810;2024-03-08T01:21:04;96971.03;;;3.45;nan
86138;BME280;76796;49.056;15.810;2024-03-08T01:23:36;96967.66;;;3.43;nan
86138;BME280;76796;49.056;15.810;2024-03-08T01:26:01;96971.28;;;3.40;nan
86138;BME280;76796;49.056;15.810;2024-03-08T01:28:29;96979.22;;;3.39;nan
86138;BME280;76796;49.056;15.810;2024-03-08T01:30:55;96963.66;;;3.36;nan
86138;BME280;76796;49.056;15.810;2024-03-08T01:33:25;96964.66;;;3.33;nan
86138;BME280;76796;49.056;15.810;2024-03-08T01:35:52;96947.34;;;3.30;nan
86138;BME280;76796;49.056;15.810;2024-03-08T01:38:18;96958.81;;;3.28;nan
86138;BME280;76796;49.056;15.810;2024-03-08T01:40:50;96944.06;;;3.27;nan
86138;BME280;76796;49.056;15.810;2024-03-08T01:43:21;96943.22;;;3.26;nan
86138;BME280;76796;49.056;15.810;2024-03-08T01:45:51;96943.22;;;3.26;nan
86138;BME280;76796;49.056;15.810;2024-03-08T01:48:17;96940.94;;;3.20;nan
86138;BME280;76796;49.056;15.810;2024-03-08T01:50:44;96930.78;;;3.14;nan
86138;BME280;76796;49.056;15.810;2024-03-08T01:53:11;96928.72;;;3.04;nan
86138;BME280;76796;49.056;15.810;2024-03-08T01:55:40;96928.09;;;2.98;nan
86138;BME280;76796;49.056;15.810;2024-03-08T01:58:14;96929.28;;;2.93;nan
86138;BME280;76796;49.056;15.810;2024-03-08T02:00:44;96934.50;;;2.93;nan
86138;BME280;76796;49.056;15.810;2024-03-08T02:03:12;96934.34;;;2.96;nan
86138;BME280;76796;49.056;15.810;2024-03-08T02:05:40;96944.19;;;2.91;nan
86138;BME280;76796;49.056;15.810;2024-03-08T02:08:06;96934.66;;;2.90;nan
86138;BME280;76796;49.056;15.810;2024-03-08T02:10:33;96926.81;;;2.90;nan
86138;BME280;76796;49.056;15.810;2024-03-08T02:13:01;96932.44;;;2.82;nan
86138;BME280;76796;49.056;15.810;2024-03-08T02:16:03;96938.38;;;2.86;nan
86138;BME280;76796;49.056;15.810;2024-03-08T02:18:38;96935.75;;;2.86;nan
86138;BME280;76796;49.056;15.810;2024-03-08T02:21:05;96931.59;;;2.82;nan
86138;BME280;76796;49.056;15.810;2024-03-08T02:23:38;96939.28;;;2.85;nan
86138;BME280;76796;49.056;15.810;2024-03-08T02:26:03;96927.38;;;2.79;nan
86138;BME280;76796;49.056;15.810;2024-03-08T02:28:30;96927.44;;;2.78;nan
86138;BME280;76796;49.056;15.810;2024-03-08T02:31:03;96922.28;;;2.76;nan
86138;BME280;76796;49.056;15.810;2024-03-08T02:33:33;96921.47;;;2.76;nan
86138;BME280;76796;49.056;15.810;2024-03-08T02:35:59;96911.16;;;2.72;nan
86138;BME280;76796;49.056;15.810;2024-03-08T02:38:26;96916.56;;;2.69;nan
86138;BME280;76796;49.056;15.810;2024-03-08T02:40:52;96916.56;;;2.69;nan
86138;BME280;76796;49.056;15.810;2024-03-08T02:43:19;96917.31;;;2.71;nan
86138;BME280;76796;49.056;15.810;2024-03-08T02:45:45;96914.53;;;2.75;nan
86138;BME280;76796;49.056;15.810;2024-03-08T02:48:18;96913.63;;;2.76;nan
86138;BME280;76796;49.056;15.810;2024-03-08T02:50:44;96903.00;;;2.79;nan
86138;BME280;76796;49.056;15.810;2024-03-08T02:53:11;96911.84;;;2.76;nan
86138;BME280;76796;49.056;15.810;2024-03-08T02:55:38;96915.31;;;2.77;nan
86138;BME280;76796;49.056;15.810;2024-03-08T02:58:04;96914.38;;;2.78;nan
86138;BME280;76796;49.056;15.810;2024-03-08T03:00:30;96902.22;;;2.77;nan
86138;BME280;76796;49.056;15.810;2024-03-08T03:02:59;96907.28;;;2.80;nan
86138;BME280;76796;49.056;15.810;2024-03-08T03:05:34;96901.91;;;2.83;nan
86138;BME280;76796;49.056;15.810;2024-03-08T03:08:00;96914.97;;;2.83;nan
86138;BME280;76796;49.056;15.810;2024-03-08T03:10:25;96915.63;;;2.70;nan
86138;BME280;76796;49.056;15.810;2024-03-08T03:12:58;96920.13;;;2.67;nan
86138;BME280;76796;49.056;15.810;2024-03-08T03:15:30;96917.75;;;2.62;nan
86138;BME280;76796;49.056;15.810;2024-03-08T03:17:56;96911.63;;;2.63;nan
86138;BME280;76796;49.056;15.810;2024-03-08T03:20:21;96913.22;;;2.66;nan
86138;BME280;76796;49.056;15.810;2024-03-08T03:23:04;96901.75;;;2.68;nan
86138;BME280;76796;49.056;15.810;2024-03-08T03:25:30;96913.09;;;2.69;nan
86138;BME280;76796;49.056;15.810;2024-03-08T03:28:03;96908.72;;;2.69;nan
86138;BME280;76796;49.056;15.810;2024-03-08T03:30:31;96904.38;;;2.68;nan
86138;BME280;76796;49.056;15.810;2024-03-08T03:33:02;96907.06;;;2.67;nan
86138;BME280;76796;49.056;15.810;2024-03-08T03:35:32;96906.00;;;2.71;nan
86138;BME280;76796;49.056;15.810;2024-03-08T03:37:58;96902.00;;;2.64;nan
86138;BME280;76796;49.056;15.810;2024-03-08T03:40:40;96895.94;;;2.63;nan
86138;BME280;76796;49.056;15.810;2024-03-08T03:43:06;96907.84;;;2.52;nan
86138;BME280;76796;49.056;15.810;2024-03-08T03:45:32;96912.09;;;2.54;nan
86138;BME280;76796;49.056;15.810;2024-03-08T03:48:05;96892.41;;;2.47;nan
86138;BME280;76796;49.056;15.810;2024-03-08T03:50:32;96894.34;;;2.44;nan
86138;BME280;76796;49.056;15.810;2024-03-08T03:52:59;96897.78;;;2.44;nan
86138;BME280;76796;49.056;15.810;2024-03-08T03:55:25;96903.41;;;2.54;nan
86138;BME280;76796;49.056;15.810;2024-03-08T03:57:59;96894.25;;;2.45;nan
86138;BME280;76796;49.056;15.810;2024-03-08T04:00:26;96900.41;;;2.44;nan
86138;BME280;76796;49.056;15.810;2024-03-08T04:02:53;96897.78;;;2.44;nan
86138;BME280;76796;49.056;15.810;2024-03-08T04:05:21;96891.72;;;2.44;nan
86138;BME280;76796;49.056;15.810;2024-03-08T04:07:48;96896.03;;;2.45;nan
86138;BME280;76796;49.056;15.810;2024-03-08T04:10:13;96891.63;;;2.45;nan
86138;BME280;76796;49.056;15.810;2024-03-08T04:12:40;96893.50;;;2.43;nan
86138;BME280;76796;49.056;15.810;2024-03-08T04:15:12;96896.94;;;2.44;nan
86138;BME280;76796;49.056;15.810;2024-03-08T04:17:38;96897.03;;;2.42;nan
86138;BME280;76796;49.056;15.810;2024-03-08T04:20:04;96890.09;;;2.41;nan
86138;BME280;76796;49.056;15.810;2024-03-08T04:22:37;96892.81;;;2.39;nan
86138;BME280;76796;49.056;15.810;2024-03-08T04:25:04;96888.44;;;2.40;nan
86138;BME280;76796;49.056;15.810;2024-03-08T04:27:32;96889.44;;;2.37;nan
86138;BME280;76796;49.056;15.810;2024-03-08T04:30:00;96892.13;;;2.36;nan
86138;BME280;76796;49.056;15.810;2024-03-08T04:32:32;96897.38;;;2.34;nan
86138;BME280;76796;49.056;15.810;2024-03-08T04:35:00;96896.63;;;2.32;nan
86138;BME280;76796;49.056;15.810;2024-03-08T04:37:31;96894.94;;;2.31;nan
86138;BME280;76796;49.056;15.810;2024-03-08T04:39:57;96891.63;;;2.28;nan
86138;BME280;76796;49.056;15.810;2024-03-08T04:42:23;96888.19;;;2.27;nan
86138;BME280;76796;49.056;15.810;2024-03-08T04:44:49;96891.72;;;2.26;nan
86138;BME280;76796;49.056;15.810;2024-03-08T04:47:14;96889.34;;;2.22;nan
86138;BME280;76796;49.056;15.810;2024-03-08T04:49:47;96886.66;;;2.23;nan
86138;BME280;76796;49.056;15.810;2024-03-08T04:52:13;96893.56;;;2.24;nan
86138;BME280;76796;49.056;15.810;2024-03-08T04:54:38;96897.88;;;2.25;nan
86138;BME280;76796;49.056;15.810;2024-03-08T04:57:04;96891.63;;;2.28;nan
86138;BME280;76796;49.056;15.810;2024-03-08T04:59:30;96898.38;;;2.32;nan
86138;BME280;76796;49.056;15.810;2024-03-08T05:01:56;96890.41;;;2.35;nan
86138;BME280;76796;49.056;15.810;2024-03-08T05:04:22;96896.41;;;2.37;nan
86138;BME280;76796;49.056;15.810;2024-03-08T05:06:54;96896.34;;;2.38;nan
86138;BME280;76796;49.056;15.810;2024-03-08T05:09:20;96905.09;;;2.37;nan
86138;BME280;76796;49.056;15.810;2024-03-08T05:11:48;96892.97;;;2.36;nan
86138;BME280;76796;49.056;15.810;2024-03-08T05:14:21;96898.19;;;2.36;nan
86138;BME280;76796;49.056;15.810;2024-03-08T05:16:53;96900.81;;;2.36;nan
86138;BME280;76796;49.056;15.810;2024-03-08T05:19:20;96899.03;;;2.37;nan
86138;BME280;76796;49.056;15.810;2024-03-08T05:21:47;96888.59;;;2.37;nan
86138;BME280;76796;49.056;15.810;2024-03-08T05:24:19;96894.50;;;2.40;nan
86138;BME280;76796;49.056;15.810;2024-03-08T05:26:45;96892.72;;;2.41;nan
86138;BME280;76796;49.056;15.810;2024-03-08T05:29:15;96883.88;;;2.44;nan
86138;BME280;76796;49.056;15.810;2024-03-08T05:31:51;96888.19;;;2.45;nan
86138;BME280;76796;49.056;15.810;2024-03-08T05:34:21;96884.72;;;2.44;nan
86138;BME280;76796;49.056;15.810;2024-03-08T05:36:48;96891.81;;;2.42;nan
86138;BME280;76796;49.056;15.810;2024-03-08T05:39:17;96885.03;;;2.38;nan
86138;BME280;76796;49.056;15.810;2024-03-08T05:41:49;96883.47;;;2.34;nan
86138;BME280;76796;49.056;15.810;2024-03-08T05:44:16;96888.88;;;2.31;nan
86138;BME280;76796;49.056;15.810;2024-03-08T05:46:44;96894.09;;;2.31;nan
86138;BME280;76796;49.056;15.810;2024-03-08T05:49:11;96899.47;;;2.28;nan
86138;BME280;76796;49.056;15.810;2024-03-08T05:51:38;96884.13;;;2.22;nan
86138;BME280;76796;49.056;15.810;2024-03-08T05:54:11;96903.25;;;2.22;nan
86138;BME280;76796;49.056;15.810;2024-03-08T05:56:38;96895.50;;;2.21;nan
86138;BME280;76796;49.056;15.810;2024-03-08T05:59:15;96895.41;;;2.22;nan
86138;BME280;76796;49.056;15.810;2024-03-08T06:01:40;96895.50;;;2.21;nan
86138;BME280;76796;49.056;15.810;2024-03-08T06:04:09;96894.56;;;2.22;nan
86138;BME280;76796;49.056;15.810;2024-03-08T06:06:38;96897.03;;;2.25;nan
86138;BME280;76796;49.056;15.810;2024-03-08T06:09:03;96891.88;;;2.23;nan
86138;BME280;76796;49.056;15.810;2024-03-08T06:11:45;96895.25;;;2.25;nan
86138;BME280;76796;49.056;15.810;2024-03-08T06:14:10;96898.63;;;2.27;nan
86138;BME280;76796;49.056;15.810;2024-03-08T06:16:43;96895.94;;;2.29;nan
86138;BME280;76796;49.056;15.810;2024-03-08T06:19:09;96897.63;;;2.30;nan
86138;BME280;76796;49.056;15.810;2024-03-08T06:21:35;96900.16;;;2.31;nan
86138;BME280;76796;49.056;15.810;2024-03-08T06:24:01;96901.66;;;2.37;nan
86138;BME280;76796;49.056;15.810;2024-03-08T06:26:29;96900.16;;;2.31;nan
86138;BME280;76796;49.056;15.810;2024-03-08T06:28:55;96895.84;;;2.30;nan
86138;BME280;76796;49.056;15.810;2024-03-08T06:31:21;96898.31;;;2.33;nan
86138;BME280;76796;49.056;15.810;2024-03-08T06:33:53;96898.19;;;2.36;nan
86138;BME280;76796;49.056;15.810;2024-03-08T06:36:23;96906.78;;;2.38;nan
86138;BME280;76796;49.056;15.810;2024-03-08T06:38:50;96902.25;;;2.42;nan
86138;BME280;76796;49.056;15.810;2024-03-08T06:41:16;96897.78;;;2.44;nan
86138;BME280;76796;49.056;15.810;2024-03-08T06:43:44;96895.00;;;2.47;nan
86138;BME280;76796;49.056;15.810;2024-03-08T06:46:10;96888.78;;;2.50;nan
86138;BME280;76796;49.056;15.810;2024-03-08T06:48:38;96909.47;;;2.54;nan
86138;BME280;76796;49.056;15.810;2024-03-08T06:51:11;96905.03;;;2.56;nan
86138;BME280;76796;49.056;15.810;2024-03-08T06:53:37;96904.84;;;2.59;nan
86138;BME280;76796;49.056;15.810;2024-03-08T06:56:03;96899.47;;;2.62;nan
86138;BME280;76796;49.056;15.810;2024-03-08T06:58:36;96914.81;;;2.68;nan
86138;BME280;76796;49.056;15.810;2024-03-08T07:01:06;96903.25;;;2.57;nan
86138;BME280;76796;49.056;15.810;2024-03-08T07:03:51;96906.38;;;2.63;nan
86138;BME280;76796;49.056;15.810;2024-03-08T07:06:24;96908.75;;;2.68;nan
86138;BME280;76796;49.056;15.810;2024-03-08T07:08:51;96899.16;;;2.68;nan
86138;BME280;76796;49.056;15.810;2024-03-08T07:11:19;96904.31;;;2.70;nan
86138;BME280;76796;49.056;15.810;2024-03-08T07:13:45;96907.88;;;2.69;nan
86138;BME280;76796;49.056;15.810;2024-03-08T07:16:17;96901.00;;;2.66;nan
86138;BME280;76796;49.056;15.810;2024-03-08T07:18:45;96901.16;;;2.63;nan
86138;BME280;76796;49.056;15.810;2024-03-08T07:21:11;96903.00;;;2.61;nan
86138;BME280;76796;49.056;15.810;2024-03-08T07:23:47;96902.69;;;2.67;nan
86138;BME280;76796;49.056;15.810;2024-03-08T07:26:21;96890.00;;;2.77;nan
86138;BME280;76796;49.056;15.810;2024-03-08T07:28:48;96910.00;;;2.78;nan
86138;BME280;76796;49.056;15.810;2024-03-08T07:31:15;96909.75;;;2.83;nan
86138;BME280;76796;49.056;15.810;2024-03-08T07:33:52;96905.47;;;2.64;nan
86138;BME280;76796;49.056;15.810;2024-03-08T07:36:19;96901.66;;;2.54;nan
86138;BME280;76796;49.056;15.810;2024-03-08T07:38:51;96902.16;;;2.61;nan
86138;BME280;76796;49.056;15.810;2024-03-08T07:41:19;96900.41;;;2.61;nan
86138;BME280;76796;49.056;15.810;2024-03-08T07:43:45;96907.47;;;2.59;nan
86138;BME280;76796;49.056;15.810;2024-03-08T07:46:13;96905.78;;;2.58;nan
86138;BME280;76796;49.056;15.810;2024-03-08T07:48:39;96901.31;;;2.60;nan
86138;BME280;76796;49.056;15.810;2024-03-08T07:51:05;96918.38;;;2.33;nan
86138;BME280;76796;49.056;15.810;2024-03-08T07:53:35;96908.75;;;2.16;nan
86138;BME280;76796;49.056;15.810;2024-03-08T07:56:08;96911.28;;;2.35;nan
86138;BME280;76796;49.056;15.810;2024-03-08T07:58:39;96904.53;;;2.31;nan
86138;BME280;76796;49.056;15.810;2024-03-08T08:01:06;96905.09;;;2.20;nan
86138;BME280;76796;49.056;15.810;2024-03-08T08:03:35;96897.47;;;2.33;nan
86138;BME280;76796;49.056;15.810;2024-03-08T08:06:03;96911.69;;;2.45;nan
86138;BME280;76796;49.056;15.810;2024-03-08T08:08:34;96894.16;;;2.12;nan
86138;BME280;76796;49.056;15.810;2024-03-08T08:11:06;96896.41;;;2.20;nan
86138;BME280;76796;49.056;15.810;2024-03-08T08:13:46;96899.53;;;2.09;nan
86138;BME280;76796;49.056;15.810;2024-03-08T08:16:23;96893.41;;;2.27;nan
86138;BME280;76796;49.056;15.810;2024-03-08T08:18:49;96904.16;;;2.21;nan
86138;BME280;76796;49.056;15.810;2024-03-08T08:21:18;96901.38;;;2.07;nan
86138;BME280;76796;49.056;15.810;2024-03-08T08:23:44;96897.38;;;2.17;nan
86138;BME280;76796;49.056;15.810;2024-03-08T08:26:10;96900.47;;;2.08;nan
86138;BME280;76796;49.056;15.810;2024-03-08T08:28:36;96898.31;;;2.16;nan
86138;BME280;76796;49.056;15.810;2024-03-08T08:31:12;96908.34;;;1.89;nan
86138;BME280;76796;49.056;15.810;2024-03-08T08:33:40;96899.50;;;1.92;nan
86138;BME280;76796;49.056;15.810;2024-03-08T08:36:06;96903.13;;;1.89;nan
86138;BME280;76796;49.056;15.810;2024-03-08T08:38:33;96902.81;;;1.95;nan
86138;BME280;76796;49.056;15.810;2024-03-08T08:40:59;96896.78;;;2.12;nan
86138;BME280;76796;49.056;15.810;2024-03-08T08:43:25;96902.00;;;2.29;nan
86138;BME280;76796;49.056;15.810;2024-03-08T08:45:51;96895.78;;;2.32;nan
86138;BME280;76796;49.056;15.810;2024-03-08T08:48:26;96888.31;;;2.07;nan
86138;BME280;76796;49.056;15.810;2024-03-08T08:50:53;96887.56;;;2.05;nan
86138;BME280;76796;49.056;15.810;2024-03-08T08:53:21;96888.56;;;2.20;nan
86138;BME280;76796;49.056;15.810;2024-03-08T08:55:49;96880.03;;;2.16;nan
86138;BME280;76796;49.056;15.810;2024-03-08T08:58:15;96885.81;;;2.23;nan
86138;BME280;76796;49.056;15.810;2024-03-08T09:00:45;96894.25;;;2.28;nan
86138;BME280;76796;49.056;15.810;2024-03-08T09:03:13;96884.31;;;2.34;nan
86138;BME280;76796;49.056;15.810;2024-03-08T09:05:45;96886.41;;;2.45;nan
86138;BME280;76796;49.056;15.810;2024-03-08T09:08:11;96882.72;;;2.49;nan
86138;BME280;76796;49.056;15.810;2024-03-08T09:10:38;96877.97;;;2.57;nan
86138;BME280;76796;49.056;15.810;2024-03-08T09:13:12;96891.72;;;2.61;nan
86138;BME280;76796;49.056;15.810;2024-03-08T09:15:44;96881.94;;;2.64;nan
86138;BME280;76796;49.056;15.810;2024-03-08T09:18:10;96881.09;;;2.47;nan
86138;BME280;76796;49.056;15.810;2024-03-08T09:20:36;96881.19;;;2.62;nan
86138;BME280;76796;49.056;15.810;2024-03-08T09:23:08;96879.19;;;2.50;nan
86138;BME280;76796;49.056;15.810;2024-03-08T09:25:36;96882.25;;;2.58;nan
86138;BME280;76796;49.056;15.810;2024-03-08T09:28:09;96883.94;;;2.59;nan
86138;BME280;76796;49.056;15.810;2024-03-08T09:30:34;96883.94;;;2.59;nan
86138;BME280;76796;49.056;15.810;2024-03-08T09:33:01;96884.78;;;2.77;nan
86138;BME280;76796;49.056;15.810;2024-03-08T09:35:33;96873.63;;;2.74;nan
86138;BME280;76796;49.056;15.810;2024-03-08T09:38:03;96882.69;;;2.66;nan
86138;BME280;76796;49.056;15.810;2024-03-08T09:40:36;96878.72;;;2.59;nan
86138;BME280;76796;49.056;15.810;2024-03-08T09:43:02;96879.19;;;2.50;nan
86138;BME280;76796;49.056;15.810;2024-03-08T09:45:35;96882.41;;;2.72;nan
86138;BME280;76796;49.056;15.810;2024-03-08T09:48:10;96881.72;;;2.69;nan
86138;BME280;76796;49.056;15.810;2024-03-08T09:50:43;96877.25;;;2.71;nan
86138;BME280;76796;49.056;15.810;2024-03-08T09:53:13;96881.78;;;2.67;nan
86138;BME280;76796;49.056;15.810;2024-03-08T09:55:45;96883.16;;;2.75;nan
86138;BME280;76796;49.056;15.810;2024-03-08T09:58:15;96873.16;;;2.83;nan
86138;BME280;76796;49.056;15.810;2024-03-08T10:01:03;96879.00;;;2.88;nan
86138;BME280;76796;49.056;15.810;2024-03-08T10:03:37;96876.13;;;2.92;nan
86138;BME280;76796;49.056;15.810;2024-03-08T10:06:06;96871.13;;;3.05;nan
86138;BME280;76796;49.056;15.810;2024-03-08T10:08:32;96865.47;;;3.13;nan
86138;BME280;76796;49.056;15.810;2024-03-08T10:11:19;96881.56;;;3.05;nan
86138;BME280;76796;49.056;15.810;2024-03-08T10:14:08;96873.47;;;3.10;nan
86138;BME280;76796;49.056;15.810;2024-03-08T10:16:38;96872.97;;;3.19;nan
86138;BME280;76796;49.056;15.810;2024-03-08T10:19:08;96872.03;;;3.04;nan
86138;BME280;76796;49.056;15.810;2024-03-08T10:21:47;96870.34;;;3.19;nan
86138;BME280;76796;49.056;15.810;2024-03-08T10:24:13;96867.56;;;3.06;nan
86138;BME280;76796;49.056;15.810;2024-03-08T10:26:46;96864.72;;;3.11;nan
86138;BME280;76796;49.056;15.810;2024-03-08T10:29:18;96869.91;;;2.95;nan
86138;BME280;76796;49.056;15.810;2024-03-08T10:31:45;96866.91;;;3.03;nan
86138;BME280;76796;49.056;15.810;2024-03-08T10:34:12;96870.41;;;3.01;nan
86138;BME280;76796;49.056;15.810;2024-03-08T10:36:42;96867.13;;;2.98;nan
86138;BME280;76796;49.056;15.810;2024-03-08T10:41:58;96873.94;;;2.67;nan
86138;BME280;76796;49.056;15.810;2024-03-08T10:47:27;96871.03;;;2.74;nan
86138;BME280;76796;49.056;15.810;2024-03-08T10:50:11;96871.28;;;2.85;nan
86138;BME280;76796;49.056;15.810;2024-03-08T10:52:45;96865.59;;;2.94;nan
86138;BME280;76796;49.056;15.810;2024-03-08T10:55:12;96863.34;;;3.04;nan
86138;BME280;76796;49.056;15.810;2024-03-08T10:57:40;96875.81;;;2.98;nan
86138;BME280;76796;49.056;15.810;2024-03-08T11:00:17;96859.97;;;3.17;nan
86138;BME280;76796;49.056;15.810;2024-03-08T11:03:04;96881.13;;;2.97;nan
86138;BME280;76796;49.056;15.810;2024-03-08T11:05:35;96864.88;;;3.08;nan
86138;BME280;76796;49.056;15.810;2024-03-08T11:08:24;96855.94;;;3.12;nan
86138;BME280;76796;49.056;15.810;2024-03-08T11:10:51;96854.59;;;3.20;nan
86138;BME280;76796;49.056;15.810;2024-03-08T11:18:53;96852.34;;;3.46;nan
86138;BME280;76796;49.056;15.810;2024-03-08T11:21:19;96845.00;;;3.37;nan
86138;BME280;76796;49.056;15.810;2024-03-08T11:24:07;96844.16;;;3.20;nan
86138;BME280;76796;49.056;15.810;2024-03-08T11:26:33;96844.91;;;3.22;nan
86138;BME280;76796;49.056;15.810;2024-03-08T11:32:27;96838.75;;;3.39;nan
86138;BME280;76796;49.056;15.810;2024-03-08T11:34:54;96832.69;;;3.39;nan
86138;BME280;76796;49.056;15.810;2024-03-08T11:37:21;96838.00;;;3.37;nan
86138;BME280;76796;49.056;15.810;2024-03-08T11:39:53;96828.78;;;3.46;nan
86138;BME280;76796;49.056;15.810;2024-03-08T11:42:25;96831.06;;;3.36;nan
86138;BME280;76796;49.056;15.810;2024-03-08T11:44:51;96840.66;;;3.36;nan
86138;BME280;76796;49.056;15.810;2024-03-08T11:47:24;96831.81;;;3.22;nan
86138;BME280;76796;49.056;15.810;2024-03-08T11:49:51;96834.44;;;3.22;nan
86138;BME280;76796;49.056;15.810;2024-03-08T11:52:18;96831.19;;;3.17;nan
86138;BME280;76796;49.056;15.810;2024-03-08T11:54:53;96815.38;;;3.20;nan
86138;BME280;76796;49.056;15.810;2024-03-08T11:57:22;96821.94;;;3.27;nan
86138;BME280;76796;49.056;15.810;2024-03-08T11:59:55;96821.94;;;3.27;nan
86138;BME280;76796;49.056;15.810;2024-03-08T12:02:39;96821.44;;;3.21;nan
86138;BME280;76796;49.056;15.810;2024-03-08T12:05:07;96814.84;;;3.29;nan
86138;BME280;76796;49.056;15.810;2024-03-08T12:07:35;96815.59;;;3.31;nan
86138;BME280;76796;49.056;15.810;2024-03-08T12:10:18;96815.13;;;3.41;nan
86138;BME280;76796;49.056;15.810;2024-03-08T12:12:52;96812.72;;;3.52;nan
86138;BME280;76796;49.056;15.810;2024-03-08T12:15:31;96807.44;;;3.53;nan
86138;BME280;76796;49.056;15.810;2024-03-08T12:18:05;96815.19;;;3.39;nan
86138;BME280;76796;49.056;15.810;2024-03-08T12:20:32;96815.94;;;3.25;nan
86138;BME280;76796;49.056;15.810;2024-03-08T12:22:59;96814.59;;;3.34;nan
86138;BME280;76796;49.056;15.810;2024-03-08T12:25:30;96803.63;;;3.43;nan
86138;BME280;76796;49.056;15.810;2024-03-08T12:28:06;96804.13;;;3.34;nan
86138;BME280;76796;49.056;15.810;2024-03-08T12:30:33;96798.03;;;3.49;nan
86138;BME280;76796;49.056;15.810;2024-03-08T12:33:02;96796.19;;;3.51;nan
86138;BME280;76796;49.056;15.810;2024-03-08T12:35:34;96794.19;;;3.41;nan
86138;BME280;76796;49.056;15.810;2024-03-08T12:38:00;96808.78;;;3.45;nan
86138;BME280;76796;49.056;15.810;2024-03-08T12:40:30;96798.56;;;3.56;nan
86138;BME280;76796;49.056;15.810;2024-03-08T12:43:01;96797.03;;;3.52;nan
86138;BME280;76796;49.056;15.810;2024-03-08T12:45:29;96798.19;;;3.62;nan
86138;BME280;76796;49.056;15.810;2024-03-08T12:47:55;96791.19;;;3.62;nan
86138;BME280;76796;49.056;15.810;2024-03-08T12:50:22;96793.16;;;3.43;nan
86138;BME280;76796;49.056;15.810;2024-03-08T12:52:55;96795.88;;;3.26;nan
86138;BME280;76796;49.056;15.810;2024-03-08T12:55:21;96788.19;;;3.39;nan
86138;BME280;76796;49.056;15.810;2024-03-08T12:57:47;96777.44;;;3.59;nan
86138;BME280;76796;49.056;15.810;2024-03-08T13:00:18;96776.25;;;3.65;nan
86138;BME280;76796;49.056;15.810;2024-03-08T13:02:49;96786.22;;;3.58;nan
86138;BME280;76796;49.056;15.810;2024-03-08T13:05:21;96785.28;;;3.75;nan
86138;BME280;76796;49.056;15.810;2024-03-08T13:07:46;96775.94;;;3.55;nan
86138;BME280;76796;49.056;15.810;2024-03-08T13:10:18;96776.25;;;3.49;nan
86138;BME280;76796;49.056;15.810;2024-03-08T13:12:45;96775.56;;;3.61;nan
86138;BME280;76796;49.056;15.810;2024-03-08T13:15:18;96773.53;;;3.66;nan
86138;BME280;76796;49.056;15.810;2024-03-08T13:17:47;96771.53;;;3.55;nan
86138;BME280;76796;49.056;15.810;2024-03-08T13:20:13;96772.81;;;3.48;nan
86138;BME280;76796;49.056;15.810;2024-03-08T13:22:44;96760.56;;;3.49;nan
86138;BME280;76796;49.056;15.810;2024-03-08T13:25:10;96753.47;;;3.51;nan
86138;BME280;76796;49.056;15.810;2024-03-08T13:27:45;96763.09;;;3.35;nan
86138;BME280;76796;49.056;15.810;2024-03-08T13:30:12;96749.00;;;3.53;nan
86138;BME280;76796;49.056;15.810;2024-03-08T13:32:45;96754.63;;;3.61;nan
86138;BME280;76796;49.056;15.810;2024-03-08T13:35:12;96744.50;;;3.71;nan
86138;BME280;76796;49.056;15.810;2024-03-08T13:37:42;96745.06;;;3.76;nan
86138;BME280;76796;49.056;15.810;2024-03-08T13:40:10;96744.88;;;3.79;nan
86138;BME280;76796;49.056;15.810;2024-03-08T13:42:41;96750.69;;;3.84;nan
86138;BME280;76796;49.056;15.810;2024-03-08T13:45:15;96744.97;;;3.77;nan
86138;BME280;76796;49.056;15.810;2024-03-08T13:47:46;96747.78;;;3.74;nan
86138;BME280;76796;49.056;15.810;2024-03-08T13:50:12;96750.13;;;3.79;nan